createdAt,value
2018-05-31T00:00:32.730Z,22.40
2018-05-31T00:03:03.465Z,22.20
2018-05-31T00:05:34.584Z,22.00
2018-05-31T00:08:02.815Z,22.00
2018-05-31T00:10:31.867Z,22.00
2018-05-31T00:13:01.909Z,22.10
2018-05-31T00:15:32.526Z,22.00
2018-05-31T00:17:59.970Z,22.00
2018-05-31T00:20:28.201Z,22.00
2018-05-31T00:22:55.651Z,22.00
2018-05-31T00:25:24.818Z,22.00
2018-05-31T00:27:52.324Z,21.90
2018-05-31T00:30:28.081Z,21.80
2018-05-31T00:32:59.820Z,21.80
2018-05-31T00:35:30.609Z,21.60
2018-05-31T00:37:58.810Z,21.50
2018-05-31T00:40:27.086Z,21.50
2018-05-31T00:42:54.555Z,21.60
2018-05-31T00:45:22.078Z,21.50
2018-05-31T00:47:57.879Z,21.60
2018-05-31T00:50:26.514Z,21.60
2018-05-31T00:52:53.957Z,21.50
2018-05-31T00:55:33.103Z,21.50
2018-05-31T01:00:44.871Z,21.40
2018-05-31T01:03:12.338Z,21.60
2018-05-31T01:05:39.866Z,21.70
2018-05-31T01:08:08.206Z,21.50
2018-05-31T01:10:37.358Z,21.30
2018-05-31T01:13:04.811Z,21.30
2018-05-31T01:15:32.266Z,21.30
2018-05-31T01:17:59.730Z,21.30
2018-05-31T01:20:27.190Z,21.20
2018-05-31T01:22:54.874Z,21.20
2018-05-31T01:25:22.317Z,21.20
2018-05-31T01:27:51.366Z,21.30
2018-05-31T01:30:18.831Z,21.40
2018-05-31T01:32:46.305Z,21.20
2018-05-31T01:35:13.771Z,21.20
2018-05-31T01:37:41.226Z,21.20
2018-05-31T01:40:09.517Z,21.20
2018-05-31T01:42:39.629Z,21.20
2018-05-31T01:45:07.311Z,21.20
2018-05-31T01:47:34.805Z,21.20
2018-05-31T01:50:03.010Z,20.90
2018-05-31T01:52:30.470Z,20.90
2018-05-31T01:54:57.911Z,20.90
2018-05-31T01:57:25.379Z,20.90
2018-05-31T01:59:54.895Z,21.00
2018-05-31T02:02:22.340Z,20.90
2018-05-31T02:04:51.753Z,20.80
2018-05-31T02:07:19.200Z,20.70
2018-05-31T02:09:46.787Z,20.80
2018-05-31T02:12:14.975Z,20.80
2018-05-31T02:14:42.798Z,20.90
2018-05-31T02:17:11.474Z,20.90
2018-05-31T02:19:38.919Z,20.70
2018-05-31T02:22:08.491Z,20.70
2018-05-31T02:24:35.943Z,20.70
2018-05-31T02:27:05.042Z,20.70
2018-05-31T02:29:32.496Z,20.70
2018-05-31T02:32:00.676Z,20.60
2018-05-31T02:34:28.127Z,20.60
2018-05-31T02:36:58.647Z,20.60
2018-05-31T02:39:27.955Z,20.70
2018-05-31T02:41:57.379Z,20.60
2018-05-31T02:44:24.854Z,20.70
2018-05-31T02:46:53.072Z,20.60
2018-05-31T02:49:21.039Z,20.60
2018-05-31T02:51:49.239Z,20.60
2018-05-31T02:54:17.213Z,20.70
2018-05-31T02:56:44.670Z,20.60
2018-05-31T02:59:12.117Z,20.60
2018-05-31T03:01:39.634Z,20.60
2018-05-31T03:04:08.695Z,20.60
2018-05-31T03:06:37.259Z,20.60
2018-05-31T03:09:05.590Z,20.60
2018-05-31T03:11:33.806Z,20.60
2018-05-31T03:14:02.171Z,20.50
2018-05-31T03:16:29.625Z,20.60
2018-05-31T03:19:01.704Z,20.70
2018-05-31T03:21:29.764Z,20.60
2018-05-31T03:23:57.710Z,20.50
2018-05-31T03:26:26.510Z,20.50
2018-05-31T03:29:05.394Z,20.40
2018-05-31T03:31:32.843Z,20.40
2018-05-31T03:34:00.297Z,20.50
2018-05-31T03:36:29.968Z,20.40
2018-05-31T03:38:58.174Z,20.30
2018-05-31T03:41:25.626Z,20.30
2018-05-31T03:43:53.085Z,20.30
2018-05-31T03:46:22.547Z,20.30
2018-05-31T03:48:52.671Z,20.30
2018-05-31T03:51:21.574Z,20.20
2018-05-31T03:53:49.023Z,20.20
2018-05-31T03:56:22.082Z,20.20
2018-05-31T03:58:49.554Z,20.30
2018-05-31T04:01:17.797Z,20.00
2018-05-31T04:03:45.250Z,20.00
2018-05-31T04:06:14.887Z,20.10
2018-05-31T04:08:42.326Z,20.20
2018-05-31T04:11:09.786Z,20.20
2018-05-31T04:13:37.235Z,20.20
2018-05-31T04:16:07.022Z,20.10
2018-05-31T04:18:36.959Z,20.20
2018-05-31T04:21:04.405Z,20.20
2018-05-31T04:23:32.091Z,20.40
2018-05-31T04:25:59.530Z,20.40
2018-05-31T04:28:26.977Z,20.50
2018-05-31T04:30:54.422Z,20.50
2018-05-31T04:33:28.817Z,20.50
2018-05-31T04:35:58.751Z,20.50
2018-05-31T04:38:26.234Z,20.50
2018-05-31T04:40:54.618Z,20.40
2018-05-31T04:43:22.287Z,20.40
2018-05-31T04:45:51.230Z,20.40
2018-05-31T04:48:18.757Z,20.40
2018-05-31T04:50:46.242Z,20.60
2018-05-31T04:53:13.710Z,20.70
2018-05-31T04:55:41.165Z,20.50
2018-05-31T04:58:08.615Z,20.60
2018-05-31T05:00:36.816Z,20.60
2018-05-31T05:03:04.269Z,20.60
2018-05-31T05:05:36.247Z,20.50
2018-05-31T05:08:14.369Z,20.50
2018-05-31T05:10:45.918Z,20.70
2018-05-31T05:16:05.832Z,20.70
2018-05-31T05:18:33.278Z,20.60
2018-05-31T05:23:57.352Z,20.60
2018-05-31T05:26:27.610Z,20.70
2018-05-31T05:28:55.043Z,20.80
2018-05-31T05:31:25.249Z,20.90
2018-05-31T05:33:53.583Z,20.90
2018-05-31T05:36:21.039Z,20.90
2018-05-31T05:38:48.483Z,21.00
2018-05-31T05:41:17.674Z,21.10
2018-05-31T05:43:48.237Z,21.30
2018-05-31T05:46:18.883Z,21.40
2018-05-31T05:48:47.111Z,21.60
2018-05-31T05:51:14.563Z,21.60
2018-05-31T05:53:42.663Z,21.70
2018-05-31T05:56:13.471Z,21.90
2018-05-31T05:58:41.875Z,21.90
2018-05-31T06:01:09.461Z,22.00
2018-05-31T06:03:40.979Z,21.90
2018-05-31T06:06:08.803Z,21.90
2018-05-31T06:08:36.288Z,21.90
2018-05-31T06:11:04.719Z,21.70
2018-05-31T06:13:32.318Z,21.70
2018-05-31T06:16:00.767Z,22.00
2018-05-31T06:18:30.745Z,22.00
2018-05-31T06:20:59.192Z,21.90
2018-05-31T06:23:32.054Z,22.00
2018-05-31T06:26:00.582Z,22.00
2018-05-31T06:28:29.014Z,22.00
2018-05-31T06:31:05.711Z,22.00
2018-05-31T06:33:34.299Z,22.10
2018-05-31T06:36:04.419Z,22.10
2018-05-31T06:38:33.127Z,22.20
2018-05-31T06:41:04.088Z,22.10
2018-05-31T06:43:38.980Z,22.10
2018-05-31T06:46:07.169Z,22.20
2018-05-31T06:48:34.668Z,22.40
2018-05-31T06:51:04.320Z,22.50
2018-05-31T06:53:36.646Z,22.40
2018-05-31T06:56:06.061Z,22.50
2018-05-31T06:58:34.933Z,22.60
2018-05-31T07:01:03.274Z,22.60
2018-05-31T07:03:30.947Z,22.80
2018-05-31T07:06:00.338Z,22.80
2018-05-31T07:08:31.031Z,22.80
2018-05-31T07:11:00.238Z,22.90
2018-05-31T07:13:27.806Z,23.00
2018-05-31T07:15:58.541Z,23.00
2018-05-31T07:18:34.127Z,23.20
2018-05-31T07:21:06.184Z,23.20
2018-05-31T07:23:34.121Z,23.20
2018-05-31T07:26:09.108Z,23.30
2018-05-31T07:28:37.370Z,23.40
2018-05-31T07:31:07.018Z,23.40
2018-05-31T07:33:35.568Z,23.30
2018-05-31T07:36:03.668Z,23.30
2018-05-31T07:38:31.921Z,23.30
2018-05-31T07:41:01.759Z,23.50
2018-05-31T07:43:33.024Z,23.50
2018-05-31T07:46:02.709Z,23.50
2018-05-31T07:48:31.809Z,23.60
2018-05-31T07:50:59.319Z,23.60
2018-05-31T07:53:27.114Z,23.50
2018-05-31T07:55:54.698Z,23.50
2018-05-31T07:58:22.535Z,23.70
2018-05-31T08:00:50.819Z,23.80
2018-05-31T08:03:19.081Z,23.70
2018-05-31T08:05:48.200Z,23.80
2018-05-31T08:08:16.958Z,23.80
2018-05-31T08:10:46.475Z,24.00
2018-05-31T08:13:14.517Z,24.00
2018-05-31T08:15:42.398Z,23.90
2018-05-31T08:18:10.583Z,24.00
2018-05-31T08:20:38.172Z,24.00
2018-05-31T08:23:07.259Z,24.00
2018-05-31T08:25:35.600Z,24.10
2018-05-31T08:28:04.531Z,24.20
2018-05-31T08:30:32.614Z,24.50
2018-05-31T08:33:00.091Z,24.60
2018-05-31T08:35:28.329Z,24.70
2018-05-31T08:37:57.596Z,24.60
2018-05-31T08:40:25.858Z,24.70
2018-05-31T08:42:54.947Z,24.70
2018-05-31T08:45:23.174Z,24.80
2018-05-31T08:47:51.555Z,24.70
2018-05-31T08:50:21.126Z,24.60
2018-05-31T08:52:49.960Z,24.60
2018-05-31T08:55:21.427Z,24.70
2018-05-31T08:57:50.296Z,24.80
2018-05-31T09:00:27.365Z,24.80
2018-05-31T09:03:12.874Z,24.80
2018-05-31T09:05:43.201Z,24.80
2018-05-31T09:08:13.250Z,24.80
2018-05-31T09:10:41.301Z,24.90
2018-05-31T09:13:08.819Z,24.80
2018-05-31T09:15:43.237Z,24.90
2018-05-31T09:18:11.022Z,24.90
2018-05-31T09:20:39.579Z,24.90
2018-05-31T09:23:07.019Z,24.80
2018-05-31T09:25:34.606Z,24.80
2018-05-31T09:28:03.312Z,24.80
2018-05-31T09:30:31.541Z,25.00
2018-05-31T09:33:01.134Z,25.10
2018-05-31T09:38:06.620Z,25.20
2018-05-31T09:40:35.247Z,25.20
2018-05-31T09:43:05.019Z,25.20
2018-05-31T09:45:33.281Z,25.40
2018-05-31T09:48:03.867Z,25.40
2018-05-31T09:50:31.951Z,25.30
2018-05-31T09:53:06.293Z,25.50
2018-05-31T09:55:33.758Z,25.60
2018-05-31T09:58:05.444Z,25.60
2018-05-31T10:00:38.664Z,25.60
2018-05-31T10:03:06.778Z,25.80
2018-05-31T10:05:34.987Z,26.20
2018-05-31T10:08:02.455Z,26.20
2018-05-31T10:10:34.027Z,26.10
2018-05-31T10:13:06.636Z,26.20
2018-05-31T10:15:36.250Z,26.40
2018-05-31T10:18:07.937Z,26.40
2018-05-31T10:20:37.140Z,26.50
2018-05-31T10:23:04.579Z,26.60
2018-05-31T10:25:35.013Z,26.60
2018-05-31T10:28:02.479Z,26.60
2018-05-31T10:30:29.938Z,26.60
2018-05-31T10:32:57.496Z,26.70
2018-05-31T10:35:25.939Z,26.80
2018-05-31T10:37:54.167Z,26.60
2018-05-31T10:40:21.867Z,26.60
2018-05-31T10:42:49.314Z,26.80
2018-05-31T10:45:18.071Z,26.70
2018-05-31T10:47:52.107Z,26.70
2018-05-31T10:50:29.093Z,26.80
2018-05-31T10:52:56.593Z,26.90
2018-05-31T10:55:26.046Z,27.10
2018-05-31T10:57:55.147Z,27.10
2018-05-31T11:00:22.595Z,27.30
2018-05-31T11:02:50.040Z,27.40
2018-05-31T11:05:21.551Z,27.50
2018-05-31T11:07:49.775Z,27.30
2018-05-31T11:10:27.882Z,27.30
2018-05-31T11:15:34.154Z,27.50
2018-05-31T11:18:01.621Z,27.70
2018-05-31T11:20:31.107Z,27.70
2018-05-31T11:22:59.400Z,27.70
2018-05-31T11:25:44.545Z,27.70
2018-05-31T11:28:12.125Z,27.90
2018-05-31T11:30:45.735Z,28.20
2018-05-31T11:33:13.590Z,28.30
2018-05-31T11:35:42.891Z,28.20
2018-05-31T11:38:11.770Z,28.20
2018-05-31T11:40:42.394Z,28.20
2018-05-31T11:43:12.318Z,28.20
2018-05-31T11:45:44.338Z,28.20
2018-05-31T11:48:12.976Z,28.20
2018-05-31T11:50:40.439Z,28.30
2018-05-31T11:53:09.387Z,28.30
2018-05-31T11:55:41.189Z,28.30
2018-05-31T11:58:27.960Z,28.20
2018-05-31T12:01:03.406Z,28.20
2018-05-31T12:03:31.601Z,28.20
2018-05-31T12:06:04.406Z,28.10
2018-05-31T12:08:32.202Z,28.10
2018-05-31T12:11:00.547Z,28.30
2018-05-31T12:13:29.517Z,28.20
2018-05-31T12:16:10.368Z,28.20
2018-05-31T12:18:38.751Z,28.20
2018-05-31T12:21:07.323Z,28.00
2018-05-31T12:23:34.786Z,28.10
2018-05-31T12:28:36.863Z,27.60
2018-05-31T12:31:04.302Z,27.60
2018-05-31T12:33:31.840Z,27.40
2018-05-31T12:36:00.918Z,27.30
2018-05-31T12:38:30.918Z,27.30
2018-05-31T12:40:59.210Z,27.00
2018-05-31T12:43:27.221Z,27.00
2018-05-31T12:45:54.738Z,26.80
2018-05-31T12:48:25.278Z,26.80
2018-05-31T12:50:53.036Z,26.80
2018-05-31T12:53:21.054Z,26.70
2018-05-31T12:55:48.511Z,26.80
2018-05-31T12:58:21.599Z,26.80
2018-05-31T13:00:49.054Z,26.80
2018-05-31T13:03:16.551Z,26.70
2018-05-31T13:05:44.811Z,26.50
2018-05-31T13:08:13.147Z,26.50
2018-05-31T13:10:42.507Z,26.50
2018-05-31T13:13:11.712Z,26.00
2018-05-31T13:15:39.922Z,25.90
2018-05-31T13:18:07.383Z,25.90
2018-05-31T13:20:35.718Z,26.00
2018-05-31T13:23:03.927Z,26.00
2018-05-31T13:25:31.366Z,26.10
2018-05-31T13:28:00.767Z,26.00
2018-05-31T13:30:29.141Z,25.90
2018-05-31T13:32:57.342Z,25.60
2018-05-31T13:35:24.824Z,25.60
2018-05-31T13:37:52.632Z,25.60
2018-05-31T13:40:20.851Z,25.60
2018-05-31T13:42:48.291Z,25.60
2018-05-31T13:45:15.742Z,25.60
2018-05-31T13:47:43.183Z,25.60
2018-05-31T13:50:10.645Z,25.50
2018-05-31T13:52:38.854Z,24.70
2018-05-31T13:55:06.295Z,24.70
2018-05-31T13:57:33.755Z,24.60
2018-05-31T14:00:01.365Z,24.30
2018-05-31T14:02:29.380Z,24.20
2018-05-31T14:04:56.902Z,24.20
2018-05-31T14:07:26.005Z,24.30
2018-05-31T14:09:53.448Z,24.30
2018-05-31T14:12:20.950Z,24.30
2018-05-31T14:14:48.436Z,24.30
2018-05-31T14:17:16.068Z,24.30
2018-05-31T14:19:43.511Z,24.10
2018-05-31T14:22:11.710Z,24.20
2018-05-31T14:24:39.147Z,24.20
2018-05-31T14:27:06.607Z,24.20
2018-05-31T14:29:34.060Z,24.20
2018-05-31T14:32:02.283Z,24.20
2018-05-31T14:34:29.785Z,24.20
2018-05-31T14:36:57.386Z,24.10
2018-05-31T14:39:25.812Z,24.30
2018-05-31T14:41:53.255Z,24.30
2018-05-31T14:44:20.714Z,24.50
2018-05-31T14:46:48.185Z,24.50
2018-05-31T14:49:15.615Z,24.70
2018-05-31T14:51:43.067Z,24.90
2018-05-31T14:54:10.505Z,24.90
2018-05-31T14:56:37.951Z,25.00
2018-05-31T14:59:05.391Z,25.00
2018-05-31T15:01:35.525Z,25.20
2018-05-31T15:04:03.791Z,25.40
2018-05-31T15:06:31.991Z,25.40
2018-05-31T15:09:01.746Z,25.60
2018-05-31T15:11:29.238Z,25.60
2018-05-31T15:13:57.433Z,25.70
2018-05-31T15:16:24.950Z,25.70
2018-05-31T15:18:52.421Z,25.60
2018-05-31T15:21:21.591Z,25.80
2018-05-31T15:23:49.883Z,25.80
2018-05-31T15:26:17.333Z,25.80
2018-05-31T15:28:45.717Z,25.90
2018-05-31T15:31:13.193Z,26.10
2018-05-31T15:33:41.405Z,26.30
2018-05-31T15:36:09.763Z,26.30
2018-05-31T15:38:38.003Z,26.40
2018-05-31T15:41:05.511Z,26.70
2018-05-31T15:43:33.094Z,26.80
2018-05-31T15:46:00.528Z,26.80
2018-05-31T15:48:27.973Z,26.80
2018-05-31T15:50:55.424Z,26.80
2018-05-31T15:53:23.650Z,26.80
2018-05-31T15:55:51.082Z,26.80
2018-05-31T15:58:19.512Z,26.90
2018-05-31T16:00:47.945Z,26.90
2018-05-31T16:03:15.967Z,26.80
2018-05-31T16:05:43.433Z,26.90
2018-05-31T16:08:10.874Z,26.90
2018-05-31T16:10:38.335Z,26.90
2018-05-31T16:13:05.866Z,27.10
2018-05-31T16:15:33.314Z,27.00
2018-05-31T16:18:00.761Z,27.00
2018-05-31T16:20:28.209Z,27.00
2018-05-31T16:22:55.662Z,27.00
2018-05-31T16:25:23.870Z,27.10
2018-05-31T16:27:51.335Z,27.10
2018-05-31T16:30:18.792Z,27.00
2018-05-31T16:32:46.242Z,26.90
2018-05-31T16:35:13.689Z,26.80
2018-05-31T16:37:43.434Z,26.80
2018-05-31T16:40:10.875Z,26.80
2018-05-31T16:42:38.326Z,26.80
2018-05-31T16:45:05.785Z,26.80
2018-05-31T16:47:33.235Z,26.70
2018-05-31T16:50:00.675Z,26.70
2018-05-31T16:52:28.130Z,26.70
2018-05-31T16:54:55.584Z,26.60
2018-05-31T16:57:23.036Z,26.50
2018-05-31T16:59:51.241Z,26.40
2018-05-31T17:02:20.603Z,26.40
2018-05-31T17:04:48.819Z,26.50
2018-05-31T17:07:16.274Z,26.50
2018-05-31T17:09:43.743Z,26.40
2018-05-31T17:12:11.195Z,26.40
2018-05-31T17:14:38.687Z,26.30
2018-05-31T17:17:06.138Z,26.30
2018-05-31T17:19:33.583Z,26.10
2018-05-31T17:22:01.035Z,26.10
2018-05-31T17:24:29.130Z,26.00
2018-05-31T17:26:56.583Z,26.00
2018-05-31T17:29:25.032Z,25.90
2018-05-31T17:31:53.408Z,25.90
2018-05-31T17:34:21.619Z,25.80
2018-05-31T17:36:49.075Z,25.80
2018-05-31T17:39:16.522Z,25.80
2018-05-31T17:41:43.966Z,25.70
2018-05-31T17:44:11.938Z,25.60
2018-05-31T17:46:44.092Z,25.70
2018-05-31T17:49:11.592Z,25.70
2018-05-31T17:51:38.994Z,25.50
2018-05-31T17:54:06.438Z,25.50
2018-05-31T17:56:33.895Z,25.50
2018-05-31T17:59:01.362Z,25.40
2018-05-31T18:01:28.802Z,25.30
2018-05-31T18:03:56.251Z,25.30
2018-05-31T18:06:24.468Z,25.20
2018-05-31T18:08:51.912Z,25.20
2018-05-31T18:11:19.360Z,25.10
2018-05-31T18:13:47.575Z,24.90
2018-05-31T18:16:15.027Z,24.90
2018-05-31T18:18:42.481Z,24.90
2018-05-31T18:21:09.931Z,24.80
2018-05-31T18:23:37.386Z,24.80
2018-05-31T18:26:05.107Z,24.80
2018-05-31T18:28:32.567Z,24.70
2018-05-31T18:31:00.011Z,24.80
2018-05-31T18:33:27.454Z,24.80
2018-05-31T18:35:54.898Z,24.90
2018-05-31T18:38:22.351Z,24.90
2018-05-31T18:40:49.798Z,24.80
2018-05-31T18:43:17.243Z,24.70
2018-05-31T18:45:44.714Z,24.70
2018-05-31T18:48:12.154Z,24.60
2018-05-31T18:50:39.609Z,24.40
2018-05-31T18:53:07.046Z,24.40
2018-05-31T18:55:35.269Z,24.30
2018-05-31T18:58:02.722Z,24.30
2018-05-31T19:00:30.183Z,24.30
2018-05-31T19:02:59.546Z,24.20
2018-05-31T19:05:27.758Z,24.10
2018-05-31T19:07:55.214Z,24.00
2018-05-31T19:10:22.680Z,23.80
2018-05-31T19:12:55.825Z,23.80
2018-05-31T19:15:24.030Z,23.70
2018-05-31T19:17:52.398Z,23.70
2018-05-31T19:20:19.851Z,23.80
2018-05-31T19:22:49.251Z,23.80
2018-05-31T19:25:21.581Z,23.80
2018-05-31T19:27:49.030Z,23.80
2018-05-31T19:30:22.222Z,23.60
2018-05-31T19:32:49.669Z,23.50
2018-05-31T19:35:22.906Z,23.50
2018-05-31T19:37:51.110Z,23.40
2018-05-31T19:40:18.553Z,23.40
2018-05-31T19:42:52.537Z,23.30
2018-05-31T19:45:20.034Z,23.30
2018-05-31T19:47:47.501Z,23.20
2018-05-31T19:50:16.878Z,23.10
2018-05-31T19:52:50.687Z,22.90
2018-05-31T19:55:18.126Z,22.90
2018-05-31T19:57:51.229Z,22.90
2018-05-31T20:00:24.248Z,22.90
2018-05-31T20:02:57.432Z,22.80
2018-05-31T20:05:24.876Z,22.90
2018-05-31T20:07:53.093Z,22.80
2018-05-31T20:10:20.542Z,22.90
2018-05-31T20:12:47.995Z,22.90
2018-05-31T20:15:15.443Z,22.80
2018-05-31T20:17:42.944Z,22.80
2018-05-31T20:20:10.379Z,22.60
2018-05-31T20:22:37.901Z,22.60
2018-05-31T20:25:06.123Z,22.50
2018-05-31T20:27:33.562Z,22.50
2018-05-31T20:30:01.036Z,22.50
2018-05-31T20:32:28.517Z,22.40
2018-05-31T20:34:55.946Z,22.40
2018-05-31T20:37:23.389Z,22.40
2018-05-31T20:39:50.847Z,22.30
2018-05-31T20:42:19.076Z,22.10
2018-05-31T20:44:46.515Z,22.10
2018-05-31T20:47:13.971Z,22.20
2018-05-31T20:49:41.417Z,22.20
2018-05-31T20:52:08.883Z,22.10
2018-05-31T20:54:36.333Z,22.10
2018-05-31T20:57:03.778Z,22.20
2018-05-31T20:59:31.250Z,22.20
2018-05-31T21:01:58.697Z,22.10
2018-05-31T21:04:26.175Z,22.00
2018-05-31T21:06:53.702Z,22.00
2018-05-31T21:09:21.142Z,22.00
2018-05-31T21:11:48.623Z,21.90
2018-05-31T21:14:16.044Z,21.90
2018-05-31T21:16:44.654Z,21.80
2018-05-31T21:19:12.107Z,21.80
2018-05-31T21:21:39.550Z,21.80
2018-05-31T21:24:06.997Z,21.70
2018-05-31T21:26:35.231Z,21.70
2018-05-31T21:29:02.686Z,21.70
2018-05-31T21:31:30.137Z,21.90
2018-05-31T21:33:57.586Z,21.80
2018-05-31T21:36:25.799Z,21.60
2018-05-31T21:38:53.242Z,21.60
2018-05-31T21:41:20.681Z,21.60
2018-05-31T21:43:48.127Z,21.60
2018-05-31T21:46:16.343Z,21.50
2018-05-31T21:48:43.786Z,21.50
2018-05-31T21:51:11.228Z,21.50
2018-05-31T21:53:38.687Z,21.60
2018-05-31T21:56:06.507Z,21.40
2018-05-31T21:58:33.964Z,21.50
2018-05-31T22:01:02.171Z,21.40
2018-05-31T22:03:29.634Z,21.40
2018-05-31T22:05:57.084Z,21.40
2018-05-31T22:08:24.531Z,21.40
2018-05-31T22:10:52.023Z,21.50
2018-05-31T22:13:19.471Z,21.40
2018-05-31T22:15:46.927Z,21.30
2018-05-31T22:18:14.418Z,21.30
2018-05-31T22:20:41.883Z,21.20
2018-05-31T22:23:09.342Z,21.20
2018-05-31T22:25:36.790Z,21.30
2018-05-31T22:28:04.263Z,21.40
2018-05-31T22:30:31.719Z,21.30
2018-05-31T22:32:59.162Z,21.30
2018-05-31T22:35:26.624Z,21.20
2018-05-31T22:37:54.067Z,21.10
2018-05-31T22:40:21.530Z,21.20
2018-05-31T22:42:48.977Z,21.10
2018-05-31T22:45:16.431Z,21.10
2018-05-31T22:47:43.879Z,20.90
2018-05-31T22:50:11.322Z,20.80
2018-05-31T22:52:38.783Z,20.90
2018-05-31T22:55:06.256Z,21.00
2018-05-31T22:57:33.714Z,21.10
2018-05-31T23:00:01.165Z,21.10
2018-05-31T23:02:28.605Z,21.00
2018-05-31T23:04:56.050Z,20.80
2018-05-31T23:07:23.498Z,20.90
2018-05-31T23:09:51.718Z,20.80
2018-05-31T23:12:19.170Z,20.80
2018-05-31T23:14:46.614Z,20.90
2018-05-31T23:17:14.054Z,20.80
2018-05-31T23:19:41.506Z,20.80
2018-05-31T23:22:09.718Z,20.90
2018-05-31T23:24:37.180Z,20.90
2018-05-31T23:27:04.622Z,20.90
2018-05-31T23:29:32.066Z,20.90
2018-05-31T23:31:59.515Z,20.90
2018-05-31T23:34:29.649Z,20.90
2018-05-31T23:36:57.100Z,20.90
2018-05-31T23:39:24.575Z,20.80
2018-05-31T23:41:52.011Z,20.80
2018-05-31T23:44:19.490Z,20.70
2018-05-31T23:46:46.934Z,20.70
2018-05-31T23:49:14.408Z,20.60
2018-05-31T23:51:41.854Z,20.50
2018-05-31T23:54:09.298Z,20.30
2018-05-31T23:56:37.506Z,20.30
2018-05-31T23:59:05.723Z,20.30
